createdAt,value
2023-03-11T00:01:40.332Z,99.90
2023-03-11T00:04:27.156Z,99.90
2023-03-11T00:07:14.997Z,99.90
2023-03-11T00:10:01.700Z,99.90
2023-03-11T00:12:49.916Z,99.90
2023-03-11T00:15:37.018Z,99.90
2023-03-11T00:18:27.015Z,99.90
2023-03-11T00:21:17.561Z,99.90
2023-03-11T00:24:04.254Z,99.90
2023-03-11T00:26:50.642Z,99.90
2023-03-11T00:29:38.285Z,99.90
2023-03-11T00:32:25.417Z,99.90
2023-03-11T00:35:14.556Z,99.90
2023-03-11T00:38:02.898Z,99.90
2023-03-11T00:40:50.286Z,99.90
2023-03-11T00:43:36.542Z,99.90
2023-03-11T00:46:25.000Z,99.90
2023-03-11T00:49:12.187Z,99.90
2023-03-11T00:51:58.872Z,99.90
2023-03-11T00:54:46.146Z,99.90
2023-03-11T00:57:33.811Z,99.90
2023-03-11T01:00:22.123Z,99.90
2023-03-11T01:03:10.133Z,99.90
2023-03-11T01:05:56.728Z,99.90
2023-03-11T01:08:44.547Z,99.90
2023-03-11T01:11:30.937Z,99.90
2023-03-11T01:14:17.511Z,99.90
2023-03-11T01:17:04.298Z,99.90
2023-03-11T01:19:51.912Z,99.90
2023-03-11T01:22:38.310Z,99.90
2023-03-11T01:25:25.731Z,99.90
2023-03-11T01:28:12.648Z,99.90
2023-03-11T01:30:59.267Z,99.90
2023-03-11T01:33:46.599Z,99.90
2023-03-11T01:36:34.313Z,99.90
2023-03-11T01:39:20.965Z,99.90
2023-03-11T01:42:08.312Z,99.90
2023-03-11T01:44:55.500Z,99.90
2023-03-11T01:47:42.659Z,99.90
2023-03-11T01:50:36.165Z,99.90
2023-03-11T01:53:25.415Z,99.90
2023-03-11T01:56:12.608Z,99.90
2023-03-11T01:58:59.522Z,99.90
2023-03-11T02:01:54.603Z,99.90
2023-03-11T02:04:42.713Z,99.90
2023-03-11T02:07:29.686Z,99.90
2023-03-11T02:10:18.428Z,99.90
2023-03-11T02:13:05.566Z,99.90
2023-03-11T02:15:52.790Z,99.90
2023-03-11T02:18:39.571Z,99.90
2023-03-11T02:21:28.559Z,99.90
2023-03-11T02:24:26.109Z,99.90
2023-03-11T02:27:17.493Z,99.90
2023-03-11T02:30:07.474Z,99.90
2023-03-11T02:32:57.857Z,99.90
2023-03-11T02:35:44.993Z,99.90
2023-03-11T02:38:31.739Z,99.90
2023-03-11T02:41:19.597Z,99.90
2023-03-11T02:44:09.926Z,99.90
2023-03-11T02:46:57.238Z,99.90
2023-03-11T02:49:44.848Z,99.90
2023-03-11T02:52:34.594Z,99.90
2023-03-11T02:55:22.305Z,99.90
2023-03-11T02:58:08.998Z,99.90
2023-03-11T03:00:57.092Z,99.90
2023-03-11T03:03:44.005Z,99.90
2023-03-11T03:06:31.625Z,99.90
2023-03-11T03:09:18.559Z,99.90
2023-03-11T03:12:06.229Z,99.90
2023-03-11T03:14:53.798Z,99.90
2023-03-11T03:17:41.605Z,99.90
2023-03-11T03:20:28.489Z,99.90
2023-03-11T03:23:19.177Z,99.90
2023-03-11T03:26:06.718Z,99.90
2023-03-11T03:28:56.978Z,99.90
2023-03-11T03:31:43.596Z,99.90
2023-03-11T03:34:31.799Z,99.90
2023-03-11T03:37:18.712Z,99.90
2023-03-11T03:40:08.281Z,99.90
2023-03-11T03:42:56.154Z,99.90
2023-03-11T03:45:43.477Z,99.90
2023-03-11T03:48:30.826Z,99.90
2023-03-11T03:51:19.945Z,99.90
2023-03-11T03:54:19.450Z,99.90
2023-03-11T03:57:07.146Z,99.90
2023-03-11T04:00:00.605Z,99.90
2023-03-11T04:02:47.562Z,99.90
2023-03-11T04:05:43.507Z,99.90
2023-03-11T04:08:32.184Z,99.90
2023-03-11T04:11:19.736Z,99.90
2023-03-11T04:14:07.223Z,99.90
2023-03-11T04:16:58.732Z,99.90
2023-03-11T04:19:46.393Z,99.90
2023-03-11T04:22:32.983Z,99.90
2023-03-11T04:25:21.237Z,99.90
2023-03-11T04:28:08.298Z,99.90
2023-03-11T04:30:54.977Z,99.90
2023-03-11T04:33:41.834Z,99.90
2023-03-11T04:36:30.151Z,99.90
2023-03-11T04:39:17.491Z,99.90
2023-03-11T04:42:07.630Z,99.90
2023-03-11T04:44:56.155Z,99.90
2023-03-11T04:47:42.978Z,99.90
2023-03-11T04:50:29.930Z,99.90
2023-03-11T04:53:16.931Z,99.90
2023-03-11T04:56:03.975Z,99.90
2023-03-11T04:58:52.553Z,99.90
2023-03-11T05:01:41.027Z,99.90
2023-03-11T05:04:29.117Z,99.90
2023-03-11T05:07:15.739Z,99.90
2023-03-11T05:10:02.793Z,99.90
2023-03-11T05:12:50.898Z,99.90
2023-03-11T05:15:39.434Z,99.90
2023-03-11T05:18:27.623Z,99.90
2023-03-11T05:21:14.774Z,99.90
2023-03-11T05:24:01.501Z,99.90
2023-03-11T05:26:48.686Z,99.90
2023-03-11T05:29:36.771Z,99.90
2023-03-11T05:32:26.216Z,99.90
2023-03-11T05:35:14.001Z,99.90
2023-03-11T05:38:00.845Z,99.90
2023-03-11T05:40:49.215Z,99.90
2023-03-11T05:43:36.145Z,99.90
2023-03-11T05:46:23.657Z,99.90
2023-03-11T05:49:11.785Z,99.90
2023-03-11T05:51:59.050Z,99.90
2023-03-11T05:54:50.423Z,99.90
2023-03-11T05:57:38.354Z,99.90
2023-03-11T06:00:29.015Z,99.90
2023-03-11T06:03:18.567Z,99.90
2023-03-11T06:06:08.375Z,99.90
2023-03-11T06:08:55.830Z,99.90
2023-03-11T06:11:44.870Z,99.90
2023-03-11T06:14:33.601Z,99.90
2023-03-11T06:17:21.208Z,99.90
2023-03-11T06:20:10.669Z,99.90
2023-03-11T06:22:58.772Z,99.90
2023-03-11T06:25:47.081Z,99.90
2023-03-11T06:28:34.476Z,99.90
2023-03-11T06:31:24.164Z,99.90
2023-03-11T06:34:11.909Z,99.90
2023-03-11T06:36:59.441Z,99.90
2023-03-11T06:39:47.206Z,99.90
2023-03-11T06:42:40.444Z,99.90
2023-03-11T06:45:30.534Z,99.90
2023-03-11T06:48:17.100Z,99.90
2023-03-11T06:51:04.765Z,99.90
2023-03-11T06:53:53.718Z,99.90
2023-03-11T06:56:43.654Z,99.90
2023-03-11T06:59:30.402Z,99.90
2023-03-11T07:02:17.551Z,99.90
2023-03-11T07:05:04.606Z,99.90
2023-03-11T07:07:54.920Z,99.90
2023-03-11T07:10:43.096Z,99.90
2023-03-11T07:13:31.702Z,99.90
2023-03-11T07:16:21.192Z,99.90
2023-03-11T07:19:11.332Z,99.90
2023-03-11T07:21:57.777Z,99.90
2023-03-11T07:24:47.285Z,99.90
2023-03-11T07:27:33.753Z,99.90
2023-03-11T07:30:21.870Z,99.90
2023-03-11T07:33:08.449Z,99.90
2023-03-11T07:35:54.830Z,99.90
2023-03-11T07:38:42.690Z,99.90
2023-03-11T07:41:30.877Z,99.90
2023-03-11T07:44:18.219Z,99.00
2023-03-11T07:47:07.043Z,98.20
2023-03-11T07:49:57.270Z,98.10
2023-03-11T07:52:44.374Z,96.30
2023-03-11T07:55:30.744Z,96.30
2023-03-11T07:58:17.045Z,96.30
2023-03-11T08:01:06.858Z,95.40
2023-03-11T08:03:57.056Z,95.20
2023-03-11T08:06:45.813Z,94.70
2023-03-11T08:09:32.410Z,94.30
2023-03-11T08:12:18.730Z,95.80
2023-03-11T08:15:05.894Z,97.40
2023-03-11T08:17:52.513Z,99.20
2023-03-11T08:20:40.633Z,99.10
2023-03-11T08:23:27.362Z,98.00
2023-03-11T08:26:17.600Z,96.90
2023-03-11T08:29:04.787Z,95.40
2023-03-11T08:31:51.179Z,95.50
2023-03-11T08:34:39.389Z,94.90
2023-03-11T08:37:27.576Z,94.60
2023-03-11T08:40:14.823Z,95.20
2023-03-11T08:43:01.537Z,96.00
2023-03-11T08:45:48.647Z,96.70
2023-03-11T08:48:35.633Z,97.70
2023-03-11T08:51:23.345Z,97.30
2023-03-11T08:54:11.102Z,96.60
2023-03-11T08:56:58.620Z,96.80
2023-03-11T08:59:45.288Z,97.00
2023-03-11T09:02:31.840Z,97.20
2023-03-11T09:05:18.974Z,97.70
2023-03-11T09:08:05.948Z,98.40
2023-03-11T09:10:54.041Z,99.00
2023-03-11T09:13:41.980Z,99.20
2023-03-11T09:16:28.631Z,99.60
2023-03-11T09:19:15.466Z,99.90
2023-03-11T09:22:02.075Z,99.90
2023-03-11T09:24:48.618Z,99.20
2023-03-11T09:27:36.363Z,97.10
2023-03-11T09:30:22.977Z,97.30
2023-03-11T09:33:10.057Z,95.70
2023-03-11T09:35:56.548Z,93.50
2023-03-11T09:38:43.902Z,94.10
2023-03-11T09:41:47.888Z,93.80
2023-03-11T09:44:47.792Z,92.00
2023-03-11T09:47:40.827Z,92.40
2023-03-11T09:50:36.434Z,91.70
2023-03-11T09:53:37.650Z,89.50
2023-03-11T09:56:24.612Z,90.00
2023-03-11T09:59:19.489Z,87.70
2023-03-11T10:02:07.937Z,90.80
2023-03-11T10:04:58.238Z,93.30
2023-03-11T10:07:48.155Z,94.30
2023-03-11T10:10:43.667Z,94.80
2023-03-11T10:13:36.554Z,93.20
2023-03-11T10:16:30.938Z,93.30
2023-03-11T10:19:27.454Z,93.10
2023-03-11T10:22:21.890Z,91.80
2023-03-11T10:25:14.711Z,90.00
2023-03-11T10:28:06.456Z,86.00
2023-03-11T10:30:58.726Z,87.90
2023-03-11T10:33:50.222Z,90.50
2023-03-11T10:36:43.865Z,90.90
2023-03-11T10:39:31.784Z,90.90
2023-03-11T10:42:22.537Z,90.30
2023-03-11T10:45:14.574Z,91.00
2023-03-11T10:48:01.231Z,90.20
2023-03-11T10:50:51.776Z,90.00
2023-03-11T10:53:46.056Z,90.50
2023-03-11T10:56:35.257Z,85.10
2023-03-11T10:59:27.047Z,89.40
2023-03-11T11:02:25.970Z,87.90
2023-03-11T11:05:28.784Z,88.10
2023-03-11T11:08:17.146Z,87.50
2023-03-11T11:11:20.683Z,89.30
2023-03-11T11:14:09.335Z,90.00
2023-03-11T11:16:56.321Z,91.00
2023-03-11T11:19:45.390Z,92.70
2023-03-11T11:22:32.353Z,91.90
2023-03-11T11:25:28.359Z,92.60
2023-03-11T11:28:20.750Z,92.50
2023-03-11T11:31:20.162Z,92.90
2023-03-11T11:34:29.998Z,93.40
2023-03-11T11:37:16.898Z,91.90
2023-03-11T11:40:11.356Z,90.90
2023-03-11T11:43:03.443Z,90.90
2023-03-11T11:45:57.988Z,90.20
2023-03-11T11:48:51.086Z,88.60
2023-03-11T11:51:42.001Z,83.00
2023-03-11T11:54:34.638Z,88.10
2023-03-11T11:57:23.134Z,87.00
2023-03-11T12:00:20.771Z,86.00
2023-03-11T12:03:31.597Z,87.60
2023-03-11T12:06:26.556Z,88.70
2023-03-11T12:09:24.146Z,90.40
2023-03-11T12:12:24.250Z,90.30
2023-03-11T12:15:17.982Z,90.10
2023-03-11T12:18:12.002Z,89.60
2023-03-11T12:21:00.693Z,88.70
2023-03-11T12:23:56.904Z,88.30
2023-03-11T12:26:46.570Z,87.60
2023-03-11T12:29:36.602Z,85.50
2023-03-11T12:32:29.275Z,84.40
2023-03-11T12:35:24.142Z,80.80
2023-03-11T12:38:19.296Z,81.00
2023-03-11T12:41:09.090Z,80.30
2023-03-11T12:44:02.496Z,78.50
2023-03-11T12:47:30.974Z,82.50
2023-03-11T12:50:41.347Z,78.10
2023-03-11T12:53:47.057Z,76.00
2023-03-11T12:56:39.662Z,74.70
2023-03-11T12:59:55.977Z,80.70
2023-03-11T13:03:01.949Z,79.20
2023-03-11T13:06:05.432Z,77.60
2023-03-11T13:08:55.689Z,79.40
2023-03-11T13:11:45.679Z,79.40
2023-03-11T13:14:33.717Z,73.70
2023-03-11T13:17:28.105Z,75.50
2023-03-11T13:20:59.363Z,76.70
2023-03-11T13:23:45.818Z,76.60
2023-03-11T13:26:41.533Z,75.20
2023-03-11T13:29:48.465Z,78.10
2023-03-11T13:33:15.147Z,78.30
2023-03-11T13:36:10.992Z,77.10
2023-03-11T13:39:21.287Z,78.40
2023-03-11T13:42:22.507Z,74.10
2023-03-11T13:45:13.737Z,77.30
2023-03-11T13:48:04.070Z,77.30
2023-03-11T13:50:54.532Z,79.10
2023-03-11T13:53:44.686Z,77.30
2023-03-11T13:56:34.080Z,75.10
2023-03-11T13:59:26.854Z,75.30
2023-03-11T14:02:19.265Z,79.50
2023-03-11T14:05:08.356Z,77.90
2023-03-11T14:07:55.638Z,78.20
2023-03-11T14:10:52.193Z,75.70
2023-03-11T14:13:41.203Z,76.00
2023-03-11T14:16:35.806Z,76.80
2023-03-11T14:19:23.403Z,79.00
2023-03-11T14:22:10.639Z,76.80
2023-03-11T14:24:59.324Z,78.70
2023-03-11T14:27:53.003Z,78.90
2023-03-11T14:30:39.447Z,79.60
2023-03-11T14:33:28.023Z,78.80
2023-03-11T14:36:15.684Z,80.30
2023-03-11T14:39:02.419Z,79.30
2023-03-11T14:41:49.192Z,77.20
2023-03-11T14:44:40.450Z,80.00
2023-03-11T14:47:33.716Z,79.30
2023-03-11T14:50:24.168Z,78.80
2023-03-11T14:53:18.081Z,79.90
2023-03-11T14:56:12.686Z,82.10
2023-03-11T14:59:08.392Z,79.60
2023-03-11T15:01:58.594Z,80.00
2023-03-11T15:04:45.364Z,79.80
2023-03-11T15:07:34.592Z,79.80
2023-03-11T15:10:21.314Z,78.80
2023-03-11T15:13:10.519Z,78.10
2023-03-11T15:15:58.314Z,80.40
2023-03-11T15:18:45.232Z,80.90
2023-03-11T15:21:32.002Z,81.40
2023-03-11T15:24:22.896Z,80.60
2023-03-11T15:27:24.112Z,80.00
2023-03-11T15:30:20.943Z,81.90
2023-03-11T15:33:21.997Z,83.40
2023-03-11T15:36:30.923Z,82.20
2023-03-11T15:39:21.345Z,83.00
2023-03-11T15:42:15.715Z,79.60
2023-03-11T15:45:05.573Z,82.40
2023-03-11T15:47:52.400Z,82.60
2023-03-11T15:50:53.222Z,82.00
2023-03-11T15:53:41.010Z,81.70
2023-03-11T15:56:28.723Z,82.30
2023-03-11T15:59:17.493Z,82.20
2023-03-11T16:02:05.112Z,83.50
2023-03-11T16:04:52.038Z,81.90
2023-03-11T16:07:40.093Z,84.00
2023-03-11T16:10:28.648Z,82.30
2023-03-11T16:13:17.405Z,82.70
2023-03-11T16:16:04.889Z,84.20
2023-03-11T16:18:51.670Z,84.00
2023-03-11T16:21:41.926Z,82.50
2023-03-11T16:24:28.512Z,83.30
2023-03-11T16:27:18.007Z,86.10
2023-03-11T16:30:06.761Z,85.60
2023-03-11T16:32:53.546Z,84.90
2023-03-11T16:35:40.476Z,86.20
2023-03-11T16:38:27.455Z,87.10
2023-03-11T16:41:13.786Z,85.80
2023-03-11T16:44:00.366Z,87.30
2023-03-11T16:46:48.382Z,85.40
2023-03-11T16:49:34.924Z,83.90
2023-03-11T16:52:22.990Z,86.40
2023-03-11T16:55:10.369Z,87.00
2023-03-11T16:57:57.430Z,86.80
2023-03-11T17:00:44.527Z,88.40
2023-03-11T17:03:41.848Z,88.90
2023-03-11T17:06:29.094Z,89.30
2023-03-11T17:09:15.963Z,89.10
2023-03-11T17:12:02.815Z,90.10
2023-03-11T17:14:49.395Z,88.90
2023-03-11T17:17:36.005Z,88.10
2023-03-11T17:20:23.935Z,88.00
2023-03-11T17:23:10.743Z,90.20
2023-03-11T17:25:59.558Z,90.70
2023-03-11T17:28:47.245Z,91.00
2023-03-11T17:31:34.349Z,91.40
2023-03-11T17:34:21.111Z,92.30
2023-03-11T17:37:09.683Z,92.20
2023-03-11T17:39:56.197Z,92.40
2023-03-11T17:42:42.530Z,92.40
2023-03-11T17:45:29.161Z,93.50
2023-03-11T17:48:15.663Z,93.50
2023-03-11T17:51:06.606Z,93.60
2023-03-11T17:53:56.794Z,94.30
2023-03-11T17:56:43.345Z,93.90
2023-03-11T17:59:30.250Z,94.60
2023-03-11T18:02:16.754Z,94.50
2023-03-11T18:05:03.654Z,95.10
2023-03-11T18:07:50.171Z,94.40
2023-03-11T18:10:38.609Z,93.90
2023-03-11T18:13:24.935Z,95.70
2023-03-11T18:16:13.901Z,95.80
2023-03-11T18:19:00.944Z,95.70
2023-03-11T18:21:47.909Z,95.40
2023-03-11T18:24:34.303Z,96.00
2023-03-11T18:27:22.238Z,95.90
2023-03-11T18:30:11.228Z,95.80
2023-03-11T18:32:57.509Z,96.60
2023-03-11T18:35:44.514Z,95.50
2023-03-11T18:38:31.451Z,96.00
2023-03-11T18:41:18.152Z,96.60
2023-03-11T18:44:06.443Z,96.00
2023-03-11T18:46:53.108Z,95.70
2023-03-11T18:49:40.448Z,96.50
2023-03-11T18:52:26.985Z,96.20
2023-03-11T18:55:13.632Z,97.00
2023-03-11T18:58:00.389Z,97.60
2023-03-11T19:00:48.136Z,97.00
2023-03-11T19:03:35.254Z,98.10
2023-03-11T19:06:23.375Z,98.10
2023-03-11T19:09:10.933Z,98.80
2023-03-11T19:11:57.141Z,99.30
2023-03-11T19:14:43.652Z,99.90
2023-03-11T19:17:31.545Z,99.90
2023-03-11T19:20:19.121Z,99.90
2023-03-11T19:23:06.491Z,99.90
2023-03-11T19:26:02.482Z,99.90
2023-03-11T19:28:50.139Z,99.90
2023-03-11T19:31:36.856Z,99.90
2023-03-11T19:34:24.457Z,99.90
2023-03-11T19:37:10.828Z,99.90
2023-03-11T19:39:57.725Z,99.90
2023-03-11T19:42:44.626Z,99.90
2023-03-11T19:45:31.573Z,99.90
2023-03-11T19:48:19.894Z,99.90
2023-03-11T19:51:08.305Z,99.90
2023-03-11T19:53:54.757Z,99.90
2023-03-11T19:56:41.680Z,99.90
2023-03-11T19:59:28.299Z,99.90
2023-03-11T20:02:16.372Z,99.90
2023-03-11T20:05:03.854Z,99.90
2023-03-11T20:07:51.880Z,99.90
2023-03-11T20:10:40.370Z,99.90
2023-03-11T20:13:27.242Z,99.90
2023-03-11T20:16:18.490Z,99.90
2023-03-11T20:19:05.855Z,99.90
2023-03-11T20:21:52.733Z,99.90
2023-03-11T20:24:41.106Z,99.90
2023-03-11T20:27:27.736Z,99.90
2023-03-11T20:30:15.503Z,99.90
2023-03-11T20:33:02.238Z,99.90
2023-03-11T20:35:48.931Z,99.90
2023-03-11T20:38:35.933Z,99.90
2023-03-11T20:41:25.153Z,99.90
2023-03-11T20:44:14.374Z,99.90
2023-03-11T20:47:01.002Z,99.90
2023-03-11T20:49:48.144Z,99.90
2023-03-11T20:52:35.767Z,99.90
2023-03-11T20:55:22.694Z,99.90
2023-03-11T20:58:10.814Z,99.90
2023-03-11T21:00:57.591Z,99.90
2023-03-11T21:03:44.864Z,99.90
2023-03-11T21:06:33.559Z,99.90
2023-03-11T21:09:20.802Z,99.90
2023-03-11T21:12:07.833Z,99.90
2023-03-11T21:14:56.131Z,99.90
2023-03-11T21:17:42.776Z,99.90
2023-03-11T21:20:29.627Z,99.90
2023-03-11T21:23:16.185Z,99.90
2023-03-11T21:26:05.258Z,99.90
2023-03-11T21:28:51.971Z,99.90
2023-03-11T21:31:39.913Z,99.90
2023-03-11T21:34:26.794Z,99.90
2023-03-11T21:37:13.603Z,99.90
2023-03-11T21:40:00.666Z,99.90
2023-03-11T21:42:47.502Z,99.90
2023-03-11T21:45:34.421Z,99.90
2023-03-11T21:48:22.821Z,99.90
2023-03-11T21:51:09.858Z,99.90
2023-03-11T21:53:57.068Z,99.90
2023-03-11T21:56:43.969Z,99.90
2023-03-11T21:59:31.420Z,99.90
2023-03-11T22:02:18.658Z,99.90
2023-03-11T22:05:07.692Z,99.90
2023-03-11T22:07:54.826Z,99.90
2023-03-11T22:10:41.726Z,99.90
2023-03-11T22:13:28.417Z,99.90
2023-03-11T22:16:15.076Z,99.90
2023-03-11T22:19:04.285Z,99.90
2023-03-11T22:21:52.429Z,99.90
2023-03-11T22:24:39.084Z,99.90
2023-03-11T22:27:25.760Z,99.90
2023-03-11T22:30:12.965Z,99.90
2023-03-11T22:32:59.369Z,99.90
2023-03-11T22:35:51.487Z,99.90
2023-03-11T22:38:41.993Z,99.90
2023-03-11T22:41:29.000Z,99.90
2023-03-11T22:44:15.760Z,99.90
2023-03-11T22:47:02.212Z,99.90
2023-03-11T22:49:49.423Z,99.90
2023-03-11T22:52:35.766Z,99.90
2023-03-11T22:55:23.566Z,99.90
2023-03-11T22:58:10.236Z,99.90
2023-03-11T23:00:56.887Z,99.90
2023-03-11T23:03:44.634Z,99.90
2023-03-11T23:06:31.370Z,99.90
2023-03-11T23:09:17.711Z,99.90
2023-03-11T23:12:06.936Z,99.90
2023-03-11T23:14:53.632Z,99.90
2023-03-11T23:17:40.522Z,99.90
2023-03-11T23:20:27.544Z,99.90
2023-03-11T23:23:14.518Z,99.90
2023-03-11T23:26:01.188Z,99.90
2023-03-11T23:28:51.060Z,99.90
2023-03-11T23:31:37.404Z,99.90
2023-03-11T23:34:24.451Z,99.90
2023-03-11T23:37:11.048Z,99.90
2023-03-11T23:39:57.548Z,99.90
2023-03-11T23:42:44.280Z,99.90
2023-03-11T23:45:32.086Z,99.90
2023-03-11T23:48:18.742Z,99.90
2023-03-11T23:51:08.195Z,99.90
2023-03-11T23:53:55.848Z,99.90
2023-03-11T23:56:43.943Z,99.90
2023-03-11T23:59:30.600Z,99.90
